Content
SEND FEEDBACK

Daily
Averages
Monthly
Summary
United Kingdom

ASHINGTON, ENGLAND


Home > Europe > United Kingdom > England
Elevation: 137 feet     Latitude: 55 18N     Longitude: 001 38W

WEATHER
 
SELECT A DAY
Number of Records: 285,113;   Date Range: 7/1/96 - 7/24/14
 
SHARE

PRINT THIS DATA

[ ← Previous Day ]
WEATHER ALMANAC - DECEMBER 25, 2013
[ Next Day → ]
[ °C ]   °F
Weather ElementAverageHighLow
Temperature39.8 °F44.6 °F (12:20 pm)35.6 °F (8:20 pm)
Dewpoint34.2 °F35.6 °F (12:50 am)32 °F (8:20 am)
Humidity80.4 %87 % (2:50 am)66 % (12:20 pm)
Barometer28.86 in29.12 in (11:50 pm)28.62 in (12:50 am)
Wind Speed11.4 mph18.4 mph (12:50 pm)
Wind Gust29.9 mph (12:50 pm)
Weather ElementAverage
Visibility6.2 mi
Wind DirectionSSW (199.3 °)

Weather ElementTotal
Precipitation---
Heating Degree Days24.9 (Base 65)
Averaged from 46 records on December 25, 2013
WEATHER CONDITIONS BREAKOUT
WIND DIRECTION BREAKOUT
WEATHER BY HOUR - DECEMBER 25, 2013
[ °C ]   °F
Local TimeTemperatureDewpointHumidityBarometerVisibilityWind DirectionWind SpeedGust SpeedPrecipitationEventsConditions
12:50 AM41.0 °F35.6 °F81 %28.62 in6.2 miSSW (210°)13.8 mphPartly Cloudy
1:20 AM41.0 °F35.6 °F81 %28.62 in6.2 miSW (220°)13.8 mphPartly Cloudy
1:50 AM41.0 °F35.6 °F81 %28.62 in6.2 miSSW (210°)13.8 mphPartly Cloudy
2:20 AM41.0 °F35.6 °F81 %28.65 in6.2 miSSW (200°)11.5 mphPartly Cloudy
2:50 AM39.2 °F35.6 °F87 %28.65 in6.2 miSSW (200°)6.9 mphPartly Cloudy
3:20 AM39.2 °F35.6 °F87 %28.65 in6.2 miSSW (210°)10.4 mphPartly Cloudy
3:50 AM39.2 °F35.6 °F87 %28.68 in6.2 miSSW (210°)10.4 mphPartly Cloudy
4:20 AM39.2 °F33.8 °F81 %28.68 in6.2 miSSW (200°)9.2 mphPartly Cloudy
4:50 AM39.2 °F35.6 °F87 %28.68 in6.2 miSSW (200°)8.1 mphPartly Cloudy
5:20 AM39.2 °F35.6 °F87 %28.68 in6.2 miSSW (210°)10.4 mphPartly Cloudy
5:50 AM39.2 °F33.8 °F81 %28.71 in6.2 miSSW (210°)11.5 mphPartly Cloudy
6:20 AM39.2 °F33.8 °F81 %28.71 in6.2 miSSW (200°)12.7 mphPartly Cloudy
6:50 AM39.2 °F33.8 °F81 %28.74 in6.2 miSSW (200°)10.4 mphPartly Cloudy
7:20 AM37.4 °F33.8 °F87 %28.74 in6.2 miSSW (210°)10.4 mphPartly Cloudy
7:50 AM39.2 °F33.8 °F81 %28.77 in6.2 miSSW (200°)10.4 mphPartly Cloudy
8:20 AM37.4 °F32.0 °F81 %28.77 in6.2 miSSW (210°)10.4 mphPartly Cloudy
8:50 AM39.2 °F32.0 °F75 %28.80 in6.2 miSSW (210°)13.8 mphPartly Cloudy
9:20 AM39.2 °F33.8 °F81 %28.80 in6.2 miSSW (210°)12.7 mphPartly Cloudy
9:50 AM39.2 °F33.8 °F81 %28.82 in6.2 miSSW (210°)12.7 mphPartly Cloudy
10:20 AM42.8 °F33.8 °F70 %28.82 in6.2 miSSW (210°)12.7 mphPartly Cloudy
10:50 AM42.8 °F33.8 °F70 %28.82 inSSW (210°)13.8 mphClear
11:20 AM42.8 °F33.8 °F70 %28.85 inSSW (200°)8.1 mphClear
11:50 AM42.8 °F33.8 °F70 %28.85 inSouth (190°)10.4 mphClear
12:20 PM44.6 °F33.8 °F66 %28.85 inSSW (210°)12.7 mphClear
12:50 PM44.6 °F33.8 °F66 %28.85 inSSW (210°)18.4 mph29.9 mphClear
1:20 PM42.8 °F35.6 °F76 %28.88 inSSW (210°)17.3 mphClear
1:50 PM42.8 °F35.6 °F76 %28.88 inSSW (210°)17.3 mphClear
2:20 PM42.8 °F35.6 °F76 %28.88 inSW (220°)16.1 mphClear
2:50 PM41.0 °F35.6 °F81 %28.91 inSW (220°)16.1 mph28.8 mphClear
3:20 PM41.0 °F33.8 °F76 %28.91 inSW (230°)16.1 mphClear
3:50 PM39.2 °F33.8 °F81 %28.94 inSSW (210°)9.2 mphClear
4:20 PM41.0 °F33.8 °F76 %28.94 inSouth (180°)10.4 mphClear
4:50 PM39.2 °F33.8 °F81 %28.94 inSSW (210°)12.7 mphClear
5:50 PM39.2 °F35.6 °F87 %28.97 inSSW (210°)12.7 mphClear
6:20 PM39.2 °F33.8 °F81 %29.00 inSouth (190°)6.9 mphClear
6:50 PM39.2 °F33.8 °F81 %29.00 inSSW (200°)10.4 mphClear
7:20 PM39.2 °F33.8 °F81 %29.03 inSSW (210°)11.5 mphClear
7:50 PM39.2 °F33.8 °F81 %29.03 inSW (220°)10.4 mphClear
8:20 PM35.6 °F32.0 °F87 %29.06 inVariable2.3 mphClear
8:50 PM37.4 °F33.8 °F87 %29.06 inSE (140°)6.9 mphClear
9:20 PM37.4 °F33.8 °F87 %29.09 inSouth (180°)9.2 mphClear
9:50 PM37.4 °F33.8 °F87 %29.09 inSouth (190°)9.2 mphClear
10:20 PM37.4 °F32.0 °F81 %29.09 inSSW (210°)11.5 mphClear
10:50 PM37.4 °F33.8 °F87 %29.09 inSSW (200°)10.4 mphClear
11:20 PM37.4 °F32.0 °F81 %29.09 inSouth (190°)9.2 mphClear
11:50 PM37.4 °F33.8 °F87 %29.12 inSouth (180°)8.1 mphClear
Hourly data recorded from EGNT, located miles away from Ashington, England







STORIES FROM OUR PARTNERS